sensor_id;sensor_type;location;lat;lon;timestamp;pressure;altitude;pressure_sealevel;temperature;humidity
10466;BME280;5280;42.600;23.556;2023-02-26T00:00:35;92316.19;;;13.56;47.23
10466;BME280;5280;42.600;23.556;2023-02-26T00:03:05;92314.03;;;13.51;45.17
10466;BME280;5280;42.600;23.556;2023-02-26T00:05:32;92325.34;;;13.53;44.85
10466;BME280;5280;42.600;23.556;2023-02-26T00:07:59;92267.25;;;13.26;45.00
10466;BME280;5280;42.600;23.556;2023-02-26T00:10:26;92321.69;;;13.62;46.15
10466;BME280;5280;42.600;23.556;2023-02-26T00:12:56;92297.94;;;13.53;45.48
10466;BME280;5280;42.600;23.556;2023-02-26T00:15:24;92304.75;;;13.55;45.10
10466;BME280;5280;42.600;23.556;2023-02-26T00:17:55;92305.75;;;13.54;46.37
10466;BME280;5280;42.600;23.556;2023-02-26T00:20:26;92318.53;;;13.67;46.15
10466;BME280;5280;42.600;23.556;2023-02-26T00:22:53;92308.72;;;13.51;46.25
10466;BME280;5280;42.600;23.556;2023-02-26T00:25:20;92308.09;;;13.49;46.26
10466;BME280;5280;42.600;23.556;2023-02-26T00:27:48;92288.66;;;13.32;46.38
10466;BME280;5280;42.600;23.556;2023-02-26T00:30:15;92303.91;;;13.39;46.98
10466;BME280;5280;42.600;23.556;2023-02-26T00:32:43;92312.03;;;13.45;46.71
10466;BME280;5280;42.600;23.556;2023-02-26T00:35:13;92303.72;;;13.40;46.02
10466;BME280;5280;42.600;23.556;2023-02-26T00:37:58;92301.75;;;13.34;47.46
10466;BME280;5280;42.600;23.556;2023-02-26T00:40:39;92300.06;;;13.17;45.30
10466;BME280;5280;42.600;23.556;2023-02-26T00:43:09;92237.19;;;12.85;46.49
10466;BME280;5280;42.600;23.556;2023-02-26T00:45:43;92260.56;;;13.06;47.65
10466;BME280;5280;42.600;23.556;2023-02-26T00:48:35;92293.13;;;13.32;47.60
10466;BME280;5280;42.600;23.556;2023-02-26T00:51:11;92258.56;;;13.08;48.73
10466;BME280;5280;42.600;23.556;2023-02-26T00:53:45;92279.88;;;13.24;48.91
10466;BME280;5280;42.600;23.556;2023-02-26T00:56:13;92278.53;;;13.20;49.41
10466;BME280;5280;42.600;23.556;2023-02-26T00:58:40;92284.00;;;13.18;47.89
10466;BME280;5280;42.600;23.556;2023-02-26T01:01:07;92264.25;;;13.13;48.98
10466;BME280;5280;42.600;23.556;2023-02-26T01:03:34;92260.91;;;13.03;48.01
10466;BME280;5280;42.600;23.556;2023-02-26T01:06:01;92267.53;;;13.07;50.17
10466;BME280;5280;42.600;23.556;2023-02-26T01:08:32;92244.63;;;12.98;50.14
10466;BME280;5280;42.600;23.556;2023-02-26T01:11:05;92250.94;;;12.97;49.25
10466;BME280;5280;42.600;23.556;2023-02-26T01:13:32;92246.28;;;12.90;49.61
10466;BME280;5280;42.600;23.556;2023-02-26T01:16:05;92247.94;;;12.91;49.98
10466;BME280;5280;42.600;23.556;2023-02-26T01:18:37;92197.81;;;12.48;50.23
10466;BME280;5280;42.600;23.556;2023-02-26T01:21:09;92226.69;;;12.59;49.91
10466;BME280;5280;42.600;23.556;2023-02-26T01:23:41;92196.78;;;12.25;51.37
10466;BME280;5280;42.600;23.556;2023-02-26T01:26:15;92241.88;;;12.49;47.42
10466;BME280;5280;42.600;23.556;2023-02-26T01:28:44;92207.38;;;12.33;47.12
10466;BME280;5280;42.600;23.556;2023-02-26T01:31:18;92233.59;;;12.44;49.75
10466;BME280;5280;42.600;23.556;2023-02-26T01:33:52;92223.00;;;12.44;48.73
10466;BME280;5280;42.600;23.556;2023-02-26T01:36:22;92223.16;;;12.50;47.94
10466;BME280;5280;42.600;23.556;2023-02-26T01:38:52;92186.94;;;12.17;46.40
10466;BME280;5280;42.600;23.556;2023-02-26T01:41:29;92217.19;;;12.48;46.03
10466;BME280;5280;42.600;23.556;2023-02-26T01:44:09;92201.50;;;12.55;45.82
10466;BME280;5280;42.600;23.556;2023-02-26T01:46:51;92201.50;;;12.55;48.11
10466;BME280;5280;42.600;23.556;2023-02-26T01:49:20;92187.22;;;12.56;48.09
10466;BME280;5280;42.600;23.556;2023-02-26T01:51:49;92203.81;;;12.58;48.92
10466;BME280;5280;42.600;23.556;2023-02-26T01:54:19;92186.72;;;12.52;49.53
10466;BME280;5280;42.600;23.556;2023-02-26T01:56:50;92184.38;;;12.41;48.52
10466;BME280;5280;42.600;23.556;2023-02-26T01:59:19;92193.84;;;12.52;49.89
10466;BME280;5280;42.600;23.556;2023-02-26T02:01:50;92201.78;;;12.44;50.25
10466;BME280;5280;42.600;23.556;2023-02-26T02:04:18;92197.13;;;12.38;48.91
10466;BME280;5280;42.600;23.556;2023-02-26T02:06:46;92197.41;;;12.27;48.35
10466;BME280;5280;42.600;23.556;2023-02-26T02:09:13;92185.00;;;12.27;50.22
10466;BME280;5280;42.600;23.556;2023-02-26T02:11:51;92178.66;;;12.12;50.51
10466;BME280;5280;42.600;23.556;2023-02-26T02:14:28;92174.31;;;11.95;50.13
10466;BME280;5280;42.600;23.556;2023-02-26T02:17:03;92197.81;;;12.06;51.11
10466;BME280;5280;42.600;23.556;2023-02-26T02:19:56;92208.72;;;11.95;51.33
10466;BME280;5280;42.600;23.556;2023-02-26T02:25:38;92197.63;;;11.65;51.03
10466;BME280;5280;42.600;23.556;2023-02-26T02:28:19;92172.75;;;11.58;51.73
10466;BME280;5280;42.600;23.556;2023-02-26T02:31:01;92178.56;;;11.62;49.26
10466;BME280;5280;42.600;23.556;2023-02-26T02:33:34;92193.13;;;11.66;49.82
10466;BME280;5280;42.600;23.556;2023-02-26T02:36:06;92196.44;;;11.60;48.34
10466;BME280;5280;42.600;23.556;2023-02-26T02:38:43;92211.03;;;11.72;50.08
10466;BME280;5280;42.600;23.556;2023-02-26T02:41:14;92194.69;;;11.51;48.32
10466;BME280;5280;42.600;23.556;2023-02-26T02:43:45;92190.47;;;11.58;47.43
10466;BME280;5280;42.600;23.556;2023-02-26T02:46:19;92190.66;;;11.64;46.24
10466;BME280;5280;42.600;23.556;2023-02-26T02:48:51;92191.44;;;11.83;45.10
10466;BME280;5280;42.600;23.556;2023-02-26T02:51:23;92180.44;;;11.95;43.92
10466;BME280;5280;42.600;23.556;2023-02-26T02:53:54;92160.19;;;11.86;46.50
10466;BME280;5280;42.600;23.556;2023-02-26T02:56:25;92219.56;;;12.18;47.27
10466;BME280;5280;42.600;23.556;2023-02-26T02:58:58;92211.97;;;12.15;44.85
10466;BME280;5280;42.600;23.556;2023-02-26T03:01:28;92204.28;;;12.03;44.94
10466;BME280;5280;42.600;23.556;2023-02-26T03:04:02;92205.34;;;12.19;43.26
10466;BME280;5280;42.600;23.556;2023-02-26T03:06:34;92190.97;;;12.29;42.90
10466;BME280;5280;42.600;23.556;2023-02-26T03:09:01;92185.69;;;12.29;45.02
10466;BME280;5280;42.600;23.556;2023-02-26T03:11:29;92210.91;;;12.49;44.59
10466;BME280;5280;42.600;23.556;2023-02-26T03:13:56;92158.66;;;12.18;45.16
10466;BME280;5280;42.600;23.556;2023-02-26T03:16:38;92168.91;;;12.21;44.31
10466;BME280;5280;42.600;23.556;2023-02-26T03:19:17;92176.91;;;12.29;45.41
10466;BME280;5280;42.600;23.556;2023-02-26T03:21:56;92183.53;;;12.25;46.68
10466;BME280;5280;42.600;23.556;2023-02-26T03:24:34;92207.66;;;12.22;47.06
10466;BME280;5280;42.600;23.556;2023-02-26T03:27:05;92152.94;;;11.88;47.26
10466;BME280;5280;42.600;23.556;2023-02-26T03:29:38;92195.97;;;11.90;46.36
10466;BME280;5280;42.600;23.556;2023-02-26T03:32:13;92183.25;;;11.68;47.26
10466;BME280;5280;42.600;23.556;2023-02-26T03:34:45;92180.50;;;11.78;46.42
10466;BME280;5280;42.600;23.556;2023-02-26T03:37:19;92177.34;;;11.74;47.88
10466;BME280;5280;42.600;23.556;2023-02-26T03:39:50;92173.47;;;11.69;48.61
10466;BME280;5280;42.600;23.556;2023-02-26T03:42:21;92179.28;;;11.72;48.59
10466;BME280;5280;42.600;23.556;2023-02-26T03:44:52;92169.06;;;11.51;48.97
10466;BME280;5280;42.600;23.556;2023-02-26T03:47:23;92118.63;;;10.93;49.70
10466;BME280;5280;42.600;23.556;2023-02-26T03:49:54;92175.06;;;11.28;48.99
10466;BME280;5280;42.600;23.556;2023-02-26T03:52:24;92177.56;;;11.11;50.38
10466;BME280;5280;42.600;23.556;2023-02-26T03:54:58;92171.81;;;11.16;50.16
10466;BME280;5280;42.600;23.556;2023-02-26T03:57:26;92185.94;;;11.25;50.68
10466;BME280;5280;42.600;23.556;2023-02-26T03:59:53;92179.84;;;11.24;51.10
10466;BME280;5280;42.600;23.556;2023-02-26T04:02:26;92176.97;;;11.17;50.18
10466;BME280;5280;42.600;23.556;2023-02-26T04:04:59;92179.94;;;11.14;50.78
10466;BME280;5280;42.600;23.556;2023-02-26T04:07:28;92142.53;;;10.84;50.55
10466;BME280;5280;42.600;23.556;2023-02-26T04:09:56;92153.84;;;10.94;50.91
10466;BME280;5280;42.600;23.556;2023-02-26T04:12:24;92165.28;;;11.02;50.80
10466;BME280;5280;42.600;23.556;2023-02-26T04:14:53;92152.41;;;10.82;49.79
10466;BME280;5280;42.600;23.556;2023-02-26T04:17:20;92152.56;;;10.80;48.51
10466;BME280;5280;42.600;23.556;2023-02-26T04:19:48;92154.66;;;10.94;46.38
10466;BME280;5280;42.600;23.556;2023-02-26T04:22:16;92172.84;;;10.97;47.45
10466;BME280;5280;42.600;23.556;2023-02-26T04:24:42;92097.91;;;10.81;47.86
10466;BME280;5280;42.600;23.556;2023-02-26T04:27:09;92135.63;;;11.16;47.95
10466;BME280;5280;42.600;23.556;2023-02-26T04:29:36;92128.88;;;11.14;48.23
10466;BME280;5280;42.600;23.556;2023-02-26T04:32:06;92155.41;;;11.30;46.68
10466;BME280;5280;42.600;23.556;2023-02-26T04:34:33;92130.72;;;11.21;48.27
10466;BME280;5280;42.600;23.556;2023-02-26T04:37:04;92068.38;;;10.85;48.06
10466;BME280;5280;42.600;23.556;2023-02-26T04:39:31;92134.50;;;11.19;49.32
10466;BME280;5280;42.600;23.556;2023-02-26T04:41:58;92126.78;;;11.26;48.76
10466;BME280;5280;42.600;23.556;2023-02-26T04:44:25;92135.41;;;11.36;46.86
10466;BME280;5280;42.600;23.556;2023-02-26T04:46:51;92113.25;;;11.29;45.95
10466;BME280;5280;42.600;23.556;2023-02-26T04:49:18;92106.38;;;11.44;45.77
10466;BME280;5280;42.600;23.556;2023-02-26T04:51:45;92145.84;;;11.71;46.78
10466;BME280;5280;42.600;23.556;2023-02-26T04:54:14;92102.06;;;11.43;44.50
10466;BME280;5280;42.600;23.556;2023-02-26T04:56:41;92109.47;;;11.65;43.93
10466;BME280;5280;42.600;23.556;2023-02-26T04:59:08;92055.44;;;11.42;43.81
10466;BME280;5280;42.600;23.556;2023-02-26T05:01:35;92094.06;;;11.94;44.09
10466;BME280;5280;42.600;23.556;2023-02-26T05:04:02;92116.56;;;12.06;45.72
10466;BME280;5280;42.600;23.556;2023-02-26T05:06:28;92049.59;;;11.64;45.59
10466;BME280;5280;42.600;23.556;2023-02-26T05:08:55;92074.84;;;11.84;41.36
10466;BME280;5280;42.600;23.556;2023-02-26T05:11:24;92126.88;;;12.18;42.11
10466;BME280;5280;42.600;23.556;2023-02-26T05:13:52;92083.97;;;12.06;43.45
10466;BME280;5280;42.600;23.556;2023-02-26T05:16:19;92102.41;;;12.32;44.20
10466;BME280;5280;42.600;23.556;2023-02-26T05:18:46;92118.97;;;12.34;43.28
10466;BME280;5280;42.600;23.556;2023-02-26T05:21:12;92067.09;;;12.07;43.21
10466;BME280;5280;42.600;23.556;2023-02-26T05:23:40;92113.28;;;12.21;41.77
10466;BME280;5280;42.600;23.556;2023-02-26T05:26:06;92112.47;;;12.12;42.93
10466;BME280;5280;42.600;23.556;2023-02-26T05:28:35;92131.38;;;12.25;40.56
10466;BME280;5280;42.600;23.556;2023-02-26T05:31:03;92136.19;;;12.30;42.68
10466;BME280;5280;42.600;23.556;2023-02-26T05:33:31;92132.31;;;12.16;44.08
10466;BME280;5280;42.600;23.556;2023-02-26T05:35:58;92130.91;;;12.38;43.22
10466;BME280;5280;42.600;23.556;2023-02-26T05:38:25;92136.22;;;12.54;42.08
10466;BME280;5280;42.600;23.556;2023-02-26T05:40:55;92086.50;;;12.32;39.38
10466;BME280;5280;42.600;23.556;2023-02-26T05:43:23;92129.63;;;12.74;39.48
10466;BME280;5280;42.600;23.556;2023-02-26T05:45:52;92129.94;;;12.87;39.86
10466;BME280;5280;42.600;23.556;2023-02-26T05:48:20;92134.56;;;13.02;38.74
10466;BME280;5280;42.600;23.556;2023-02-26T05:50:48;92148.50;;;13.04;40.42
10466;BME280;5280;42.600;23.556;2023-02-26T05:53:15;92131.44;;;12.90;39.40
10466;BME280;5280;42.600;23.556;2023-02-26T05:55:42;92135.13;;;13.13;38.92
10466;BME280;5280;42.600;23.556;2023-02-26T05:58:09;92062.03;;;12.78;39.57
10466;BME280;5280;42.600;23.556;2023-02-26T06:00:36;92106.91;;;12.96;40.82
10466;BME280;5280;42.600;23.556;2023-02-26T06:03:05;92164.09;;;13.31;40.24
10466;BME280;5280;42.600;23.556;2023-02-26T06:05:32;92153.16;;;13.34;38.37
10466;BME280;5280;42.600;23.556;2023-02-26T06:08:01;92142.22;;;13.37;39.49
10466;BME280;5280;42.600;23.556;2023-02-26T06:10:27;92075.91;;;12.97;39.67
10466;BME280;5280;42.600;23.556;2023-02-26T06:12:54;92146.03;;;13.26;40.04
10466;BME280;5280;42.600;23.556;2023-02-26T06:15:21;92155.16;;;13.32;41.67
10466;BME280;5280;42.600;23.556;2023-02-26T06:17:48;92108.38;;;13.07;41.53
10466;BME280;5280;42.600;23.556;2023-02-26T06:20:16;92172.72;;;13.33;41.78
10466;BME280;5280;42.600;23.556;2023-02-26T06:22:43;92146.88;;;13.27;42.15
10466;BME280;5280;42.600;23.556;2023-02-26T06:25:10;92162.59;;;13.36;43.21
10466;BME280;5280;42.600;23.556;2023-02-26T06:27:37;92161.13;;;13.26;42.05
10466;BME280;5280;42.600;23.556;2023-02-26T06:30:08;92159.13;;;13.36;38.20
10466;BME280;5280;42.600;23.556;2023-02-26T06:32:35;92119.97;;;13.30;40.71
10466;BME280;5280;42.600;23.556;2023-02-26T06:35:02;92170.22;;;13.48;39.91
10466;BME280;5280;42.600;23.556;2023-02-26T06:37:32;92150.78;;;13.55;41.24
10466;BME280;5280;42.600;23.556;2023-02-26T06:39:58;92161.22;;;13.73;41.11
10466;BME280;5280;42.600;23.556;2023-02-26T06:42:25;92170.13;;;13.80;40.46
10466;BME280;5280;42.600;23.556;2023-02-26T06:44:52;92143.94;;;13.77;40.94
10466;BME280;5280;42.600;23.556;2023-02-26T06:47:19;92167.97;;;13.92;41.40
10466;BME280;5280;42.600;23.556;2023-02-26T06:49:46;92160.47;;;14.03;40.82
10466;BME280;5280;42.600;23.556;2023-02-26T06:52:13;92166.59;;;14.04;42.68
10466;BME280;5280;42.600;23.556;2023-02-26T06:54:41;92126.66;;;13.81;41.20
10466;BME280;5280;42.600;23.556;2023-02-26T06:57:08;92156.28;;;14.01;40.38
10466;BME280;5280;42.600;23.556;2023-02-26T06:59:36;92087.88;;;13.72;40.64
10466;BME280;5280;42.600;23.556;2023-02-26T07:02:03;92109.78;;;14.05;40.00
10466;BME280;5280;42.600;23.556;2023-02-26T07:04:30;92163.50;;;14.39;40.72
10466;BME280;5280;42.600;23.556;2023-02-26T07:06:57;92108.41;;;14.17;41.63
10466;BME280;5280;42.600;23.556;2023-02-26T07:09:24;92144.53;;;14.42;40.23
10466;BME280;5280;42.600;23.556;2023-02-26T07:11:52;92100.75;;;14.22;40.90
10466;BME280;5280;42.600;23.556;2023-02-26T07:14:19;92141.72;;;14.67;39.87
10466;BME280;5280;42.600;23.556;2023-02-26T07:16:46;92099.03;;;14.37;40.23
10466;BME280;5280;42.600;23.556;2023-02-26T07:19:13;92146.97;;;14.75;39.71
10466;BME280;5280;42.600;23.556;2023-02-26T07:21:40;92143.38;;;14.68;40.25
10466;BME280;5280;42.600;23.556;2023-02-26T07:24:08;92128.78;;;14.86;39.93
10466;BME280;5280;42.600;23.556;2023-02-26T07:26:35;92121.56;;;14.95;39.43
10466;BME280;5280;42.600;23.556;2023-02-26T07:29:04;92098.09;;;14.76;39.73
10466;BME280;5280;42.600;23.556;2023-02-26T07:31:31;92138.53;;;15.17;39.07
10466;BME280;5280;42.600;23.556;2023-02-26T07:33:58;92133.19;;;15.17;39.43
10466;BME280;5280;42.600;23.556;2023-02-26T07:36:25;92110.38;;;15.22;38.25
10466;BME280;5280;42.600;23.556;2023-02-26T07:38:52;92133.53;;;15.36;38.50
10466;BME280;5280;42.600;23.556;2023-02-26T07:41:22;92065.56;;;15.11;39.32
10466;BME280;5280;42.600;23.556;2023-02-26T07:43:49;92115.69;;;15.60;38.99
10466;BME280;5280;42.600;23.556;2023-02-26T07:46:17;92036.69;;;15.23;38.14
10466;BME280;5280;42.600;23.556;2023-02-26T07:48:44;92113.41;;;15.86;37.12
10466;BME280;5280;42.600;23.556;2023-02-26T07:51:11;92122.41;;;15.85;37.59
10466;BME280;5280;42.600;23.556;2023-02-26T07:53:38;92118.91;;;15.99;37.35
10466;BME280;5280;42.600;23.556;2023-02-26T07:56:04;92141.97;;;16.21;36.12
10466;BME280;5280;42.600;23.556;2023-02-26T07:58:31;92118.22;;;16.41;34.66
10466;BME280;5280;42.600;23.556;2023-02-26T08:00:58;92102.56;;;16.53;34.90
10466;BME280;5280;42.600;23.556;2023-02-26T08:03:27;92115.81;;;16.61;34.48
10466;BME280;5280;42.600;23.556;2023-02-26T08:05:53;92128.66;;;16.72;33.92
10466;BME280;5280;42.600;23.556;2023-02-26T08:08:21;92103.00;;;16.71;33.50
10466;BME280;5280;42.600;23.556;2023-02-26T08:10:48;92085.03;;;16.58;32.53
10466;BME280;5280;42.600;23.556;2023-02-26T08:13:15;92106.31;;;16.94;32.79
10466;BME280;5280;42.600;23.556;2023-02-26T08:15:42;92111.31;;;17.04;32.50
10466;BME280;5280;42.600;23.556;2023-02-26T08:18:09;92119.03;;;17.13;32.63
10466;BME280;5280;42.600;23.556;2023-02-26T08:20:37;92087.50;;;17.02;30.78
10466;BME280;5280;42.600;23.556;2023-02-26T08:23:04;92112.81;;;17.34;30.59
10466;BME280;5280;42.600;23.556;2023-02-26T08:25:31;92125.66;;;17.45;28.99
10466;BME280;5280;42.600;23.556;2023-02-26T08:27:58;92070.19;;;17.19;30.92
10466;BME280;5280;42.600;23.556;2023-02-26T08:30:25;92062.97;;;17.41;28.55
10466;BME280;5280;42.600;23.556;2023-02-26T08:32:52;92096.47;;;17.65;26.95
10466;BME280;5280;42.600;23.556;2023-02-26T08:35:21;92112.16;;;17.75;30.92
10466;BME280;5280;42.600;23.556;2023-02-26T08:37:49;92099.38;;;17.70;31.69
10466;BME280;5280;42.600;23.556;2023-02-26T08:40:19;92120.69;;;17.63;32.86
10466;BME280;5280;42.600;23.556;2023-02-26T08:42:45;92138.03;;;17.74;32.23
10466;BME280;5280;42.600;23.556;2023-02-26T08:45:12;92160.16;;;17.61;32.98
10466;BME280;5280;42.600;23.556;2023-02-26T08:47:39;92116.97;;;17.37;32.63
10466;BME280;5280;42.600;23.556;2023-02-26T08:50:09;92121.66;;;17.56;31.98
10466;BME280;5280;42.600;23.556;2023-02-26T08:52:36;92134.09;;;17.49;32.35
10466;BME280;5280;42.600;23.556;2023-02-26T08:55:06;92092.38;;;17.20;33.10
10466;BME280;5280;42.600;23.556;2023-02-26T08:57:33;92091.88;;;17.10;32.36
10466;BME280;5280;42.600;23.556;2023-02-26T09:00:00;92084.09;;;17.08;32.33
10466;BME280;5280;42.600;23.556;2023-02-26T09:02:29;92086.94;;;17.07;32.34
10466;BME280;5280;42.600;23.556;2023-02-26T09:04:56;92140.63;;;17.40;32.34
10466;BME280;5280;42.600;23.556;2023-02-26T09:07:23;92089.38;;;17.30;32.85
10466;BME280;5280;42.600;23.556;2023-02-26T09:09:50;92111.34;;;17.53;33.44
10466;BME280;5280;42.600;23.556;2023-02-26T09:12:18;92114.78;;;17.47;32.49
10466;BME280;5280;42.600;23.556;2023-02-26T09:14:45;92071.50;;;17.30;32.79
10466;BME280;5280;42.600;23.556;2023-02-26T09:17:12;92108.28;;;17.56;32.74
10466;BME280;5280;42.600;23.556;2023-02-26T09:19:39;92063.81;;;17.42;32.68
10466;BME280;5280;42.600;23.556;2023-02-26T09:22:06;92127.47;;;17.87;32.21
10466;BME280;5280;42.600;23.556;2023-02-26T09:24:33;92128.78;;;18.04;31.72
10466;BME280;5280;42.600;23.556;2023-02-26T09:27:00;92130.13;;;18.22;31.14
10466;BME280;5280;42.600;23.556;2023-02-26T09:29:29;92060.16;;;18.12;32.06
10466;BME280;5280;42.600;23.556;2023-02-26T09:31:56;92078.91;;;18.25;28.30
10466;BME280;5280;42.600;23.556;2023-02-26T09:34:23;92092.47;;;18.58;30.60
10466;BME280;5280;42.600;23.556;2023-02-26T09:36:50;92060.66;;;18.35;29.21
10466;BME280;5280;42.600;23.556;2023-02-26T09:39:17;92100.56;;;18.77;29.64
10466;BME280;5280;42.600;23.556;2023-02-26T09:41:47;92045.69;;;18.47;30.54
10466;BME280;5280;42.600;23.556;2023-02-26T09:44:20;92116.25;;;18.87;29.52
10466;BME280;5280;42.600;23.556;2023-02-26T09:46:58;92105.53;;;18.87;29.08
10466;BME280;5280;42.600;23.556;2023-02-26T09:49:31;92068.09;;;18.46;28.01
10466;BME280;5280;42.600;23.556;2023-02-26T09:52:03;92053.28;;;18.50;28.93
10466;BME280;5280;42.600;23.556;2023-02-26T09:54:40;92110.28;;;18.91;29.72
10466;BME280;5280;42.600;23.556;2023-02-26T09:57:11;92102.66;;;18.95;29.69
10466;BME280;5280;42.600;23.556;2023-02-26T09:59:40;92107.63;;;19.05;29.37
10466;BME280;5280;42.600;23.556;2023-02-26T10:02:15;92108.84;;;19.09;29.00
10466;BME280;5280;42.600;23.556;2023-02-26T10:04:49;92080.63;;;19.13;29.07
10466;BME280;5280;42.600;23.556;2023-02-26T10:07:24;92090.13;;;19.15;29.28
10466;BME280;5280;42.600;23.556;2023-02-26T10:10:02;92077.72;;;18.95;26.29
10466;BME280;5280;42.600;23.556;2023-02-26T10:12:35;92088.47;;;19.01;27.95
10466;BME280;5280;42.600;23.556;2023-02-26T10:15:05;92100.84;;;19.35;24.84
10466;BME280;5280;42.600;23.556;2023-02-26T10:17:40;92080.47;;;19.27;24.59
10466;BME280;5280;42.600;23.556;2023-02-26T10:20:14;92067.88;;;19.28;24.78
10466;BME280;5280;42.600;23.556;2023-02-26T10:22:47;92076.13;;;19.40;24.93
10466;BME280;5280;42.600;23.556;2023-02-26T10:25:22;92064.38;;;19.34;24.43
10466;BME280;5280;42.600;23.556;2023-02-26T10:27:57;92060.28;;;19.31;25.04
10466;BME280;5280;42.600;23.556;2023-02-26T10:30:33;92072.22;;;19.22;25.19
10466;BME280;5280;42.600;23.556;2023-02-26T10:33:11;92069.94;;;19.19;23.57
10466;BME280;5280;42.600;23.556;2023-02-26T10:35:46;92037.78;;;19.00;22.67
10466;BME280;5280;42.600;23.556;2023-02-26T10:38:18;92057.78;;;19.17;23.23
10466;BME280;5280;42.600;23.556;2023-02-26T10:40:49;92017.41;;;18.92;23.44
10466;BME280;5280;42.600;23.556;2023-02-26T10:43:20;92041.50;;;19.18;23.41
10466;BME280;5280;42.600;23.556;2023-02-26T10:46:00;92040.88;;;19.23;23.79
10466;BME280;5280;42.600;23.556;2023-02-26T10:48:49;92026.47;;;19.24;26.53
10466;BME280;5280;42.600;23.556;2023-02-26T10:51:20;92002.34;;;19.04;27.46
10466;BME280;5280;42.600;23.556;2023-02-26T10:53:53;92039.03;;;19.37;28.09
10466;BME280;5280;42.600;23.556;2023-02-26T10:56:25;92019.84;;;19.33;28.44
10466;BME280;5280;42.600;23.556;2023-02-26T10:58:53;92011.00;;;19.13;27.93
10466;BME280;5280;42.600;23.556;2023-02-26T11:01:22;92027.91;;;19.20;28.57
10466;BME280;5280;42.600;23.556;2023-02-26T11:03:54;92031.00;;;19.30;28.78
10466;BME280;5280;42.600;23.556;2023-02-26T11:06:28;92024.22;;;19.27;28.47
10466;BME280;5280;42.600;23.556;2023-02-26T11:08:59;91994.13;;;19.12;28.40
10466;BME280;5280;42.600;23.556;2023-02-26T11:11:41;92042.53;;;19.44;28.56
10466;BME280;5280;42.600;23.556;2023-02-26T11:14:08;92033.69;;;19.37;27.43
10466;BME280;5280;42.600;23.556;2023-02-26T11:16:41;92038.41;;;19.41;27.84
10466;BME280;5280;42.600;23.556;2023-02-26T11:19:14;92036.56;;;19.42;27.32
10466;BME280;5280;42.600;23.556;2023-02-26T11:21:44;92035.53;;;19.43;28.32
10466;BME280;5280;42.600;23.556;2023-02-26T11:24:16;91981.75;;;19.05;28.11
10466;BME280;5280;42.600;23.556;2023-02-26T11:26:47;92044.00;;;19.46;28.61
10466;BME280;5280;42.600;23.556;2023-02-26T11:29:19;92000.72;;;19.16;29.10
10466;BME280;5280;42.600;23.556;2023-02-26T11:31:49;92045.22;;;19.44;29.18
10466;BME280;5280;42.600;23.556;2023-02-26T11:34:21;92045.63;;;19.34;28.78
10466;BME280;5280;42.600;23.556;2023-02-26T11:36:49;92020.28;;;19.17;29.25
10466;BME280;5280;42.600;23.556;2023-02-26T11:39:19;92060.03;;;19.33;29.33
10466;BME280;5280;42.600;23.556;2023-02-26T11:41:48;92035.72;;;19.08;29.67
10466;BME280;5280;42.600;23.556;2023-02-26T11:44:18;92071.59;;;19.40;29.52
10466;BME280;5280;42.600;23.556;2023-02-26T11:46:50;92072.44;;;19.27;29.64
10466;BME280;5280;42.600;23.556;2023-02-26T11:49:21;92041.47;;;18.99;29.02
10466;BME280;5280;42.600;23.556;2023-02-26T11:52:14;92062.53;;;19.21;29.24
10466;BME280;5280;42.600;23.556;2023-02-26T11:54:44;92072.81;;;19.18;29.06
10466;BME280;5280;42.600;23.556;2023-02-26T11:57:15;92077.94;;;19.13;29.52
10466;BME280;5280;42.600;23.556;2023-02-26T11:59:47;92085.59;;;19.09;28.91
10466;BME280;5280;42.600;23.556;2023-02-26T12:02:17;92085.97;;;19.00;28.97
10466;BME280;5280;42.600;23.556;2023-02-26T12:04:49;92104.34;;;19.03;29.67
10466;BME280;5280;42.600;23.556;2023-02-26T12:07:17;92097.94;;;19.04;30.52
10466;BME280;5280;42.600;23.556;2023-02-26T12:09:45;92099.59;;;19.05;30.54
10466;BME280;5280;42.600;23.556;2023-02-26T12:12:33;92097.53;;;19.07;31.67
10466;BME280;5280;42.600;23.556;2023-02-26T12:15:20;92094.63;;;19.08;30.20
10466;BME280;5280;42.600;23.556;2023-02-26T12:18:01;92107.44;;;19.06;29.83
10466;BME280;5280;42.600;23.556;2023-02-26T12:20:36;92105.34;;;19.02;29.04
10466;BME280;5280;42.600;23.556;2023-02-26T12:23:19;92084.69;;;18.76;27.96
10466;BME280;5280;42.600;23.556;2023-02-26T12:26:08;92091.69;;;18.83;28.83
10466;BME280;5280;42.600;23.556;2023-02-26T12:29:10;92085.31;;;18.71;28.44
10466;BME280;5280;42.600;23.556;2023-02-26T12:32:03;92049.34;;;18.39;28.92
10466;BME280;5280;42.600;23.556;2023-02-26T12:35:01;92084.66;;;18.69;28.05
10466;BME280;5280;42.600;23.556;2023-02-26T12:37:44;92082.56;;;18.58;29.21
10466;BME280;5280;42.600;23.556;2023-02-26T12:40:39;92098.63;;;18.58;28.29
10466;BME280;5280;42.600;23.556;2023-02-26T12:43:16;92104.59;;;18.60;29.29
10466;BME280;5280;42.600;23.556;2023-02-26T12:45:51;92055.72;;;18.32;29.62
10466;BME280;5280;42.600;23.556;2023-02-26T12:48:42;92115.34;;;18.67;29.70
10466;BME280;5280;42.600;23.556;2023-02-26T12:51:19;92089.09;;;18.49;30.12
10466;BME280;5280;42.600;23.556;2023-02-26T12:54:05;92119.63;;;18.55;30.73
10466;BME280;5280;42.600;23.556;2023-02-26T12:57:05;92109.97;;;18.60;29.98
10466;BME280;5280;42.600;23.556;2023-02-26T12:59:55;92105.59;;;18.53;31.85
10466;BME280;5280;42.600;23.556;2023-02-26T13:02:53;92080.75;;;18.24;32.27
10466;BME280;5280;42.600;23.556;2023-02-26T13:05:37;92081.22;;;18.28;32.16
10466;BME280;5280;42.600;23.556;2023-02-26T13:08:16;92117.91;;;18.47;32.77
10466;BME280;5280;42.600;23.556;2023-02-26T13:11:04;92113.78;;;18.44;33.80
10466;BME280;5280;42.600;23.556;2023-02-26T13:16:40;92125.72;;;18.42;34.24
10466;BME280;5280;42.600;23.556;2023-02-26T13:19:18;92128.78;;;18.39;34.64
10466;BME280;5280;42.600;23.556;2023-02-26T13:21:52;92124.78;;;18.22;34.90
10466;BME280;5280;42.600;23.556;2023-02-26T13:24:23;92130.31;;;18.20;35.59
10466;BME280;5280;42.600;23.556;2023-02-26T13:26:54;92072.41;;;17.99;36.28